createdAt,value
2023-09-08T00:02:12.481Z,20.25
2023-09-08T00:04:43.896Z,20.28
2023-09-08T00:07:37.675Z,20.28
2023-09-08T00:10:13.298Z,20.32
2023-09-08T00:12:49.660Z,20.39
2023-09-08T00:15:20.814Z,20.45
2023-09-08T00:17:52.388Z,20.53
2023-09-08T00:20:27.899Z,20.65
2023-09-08T00:23:01.315Z,20.78
2023-09-08T00:25:34.651Z,20.98
2023-09-08T00:28:09.197Z,20.84
2023-09-08T00:30:40.375Z,21.01
2023-09-08T00:33:11.737Z,21.02
2023-09-08T00:35:43.761Z,21.05
2023-09-08T00:38:16.052Z,21.07
2023-09-08T00:40:48.839Z,21.14
2023-09-08T00:43:22.724Z,21.14
2023-09-08T00:45:55.632Z,21.20
2023-09-08T00:48:30.046Z,21.25
2023-09-08T00:51:03.900Z,21.29
2023-09-08T00:53:36.266Z,21.37
2023-09-08T00:56:09.780Z,21.47
2023-09-08T00:58:44.404Z,21.51
2023-09-08T01:01:20.458Z,21.56
2023-09-08T01:03:53.184Z,21.60
2023-09-08T01:06:26.626Z,21.71
2023-09-08T01:09:00.568Z,21.70
2023-09-08T01:11:33.342Z,21.76
2023-09-08T01:14:06.926Z,21.89
2023-09-08T01:16:40.211Z,21.96
2023-09-08T01:19:16.662Z,22.01
2023-09-08T01:22:18.002Z,22.08
2023-09-08T01:25:19.513Z,22.10
2023-09-08T01:27:55.338Z,22.10
2023-09-08T01:30:31.383Z,22.11
2023-09-08T01:33:04.158Z,22.21
2023-09-08T01:35:36.466Z,22.28
2023-09-08T01:38:09.608Z,22.32
2023-09-08T01:40:47.031Z,22.44
2023-09-08T01:43:19.208Z,22.38
2023-09-08T01:45:52.955Z,22.42
2023-09-08T01:48:26.883Z,22.54
2023-09-08T01:51:00.273Z,22.66
2023-09-08T01:53:33.798Z,22.77
2023-09-08T01:56:08.711Z,22.86
2023-09-08T01:58:41.615Z,22.85
2023-09-08T02:01:13.810Z,22.95
2023-09-08T02:03:46.721Z,22.95
2023-09-08T02:06:19.002Z,22.92
2023-09-08T02:08:50.866Z,22.91
2023-09-08T02:11:27.938Z,22.93
2023-09-08T02:14:00.227Z,22.99
2023-09-08T02:16:33.027Z,22.98
2023-09-08T02:19:06.064Z,23.01
2023-09-08T02:21:39.682Z,23.10
2023-09-08T02:24:11.487Z,23.24
2023-09-08T02:26:47.788Z,23.37
2023-09-08T02:29:19.375Z,23.40
2023-09-08T02:31:51.816Z,23.40
2023-09-08T02:34:24.115Z,23.44
2023-09-08T02:36:56.464Z,23.43
2023-09-08T02:39:30.218Z,23.48
2023-09-08T02:42:04.949Z,23.57
2023-09-08T02:44:39.141Z,23.39
2023-09-08T02:47:13.176Z,23.55
2023-09-08T02:49:46.280Z,23.57
2023-09-08T02:52:19.106Z,23.67
2023-09-08T02:54:54.896Z,23.68
2023-09-08T02:57:30.877Z,23.71
2023-09-08T03:00:03.346Z,23.73
2023-09-08T03:02:38.073Z,23.68
2023-09-08T03:05:11.634Z,23.60
2023-09-08T03:07:46.459Z,23.51
2023-09-08T03:10:24.681Z,23.48
2023-09-08T03:13:00.672Z,23.56
2023-09-08T03:15:33.835Z,23.61
2023-09-08T03:18:07.682Z,23.57
2023-09-08T03:20:43.692Z,23.54
2023-09-08T03:23:16.413Z,23.59
2023-09-08T03:25:50.636Z,23.56
2023-09-08T03:28:27.007Z,23.59
2023-09-08T03:31:03.711Z,23.61
2023-09-08T03:33:38.667Z,23.60
2023-09-08T03:36:15.953Z,23.56
2023-09-08T03:38:50.259Z,23.54
2023-09-08T03:41:25.202Z,23.62
2023-09-08T03:44:01.819Z,23.67
2023-09-08T03:46:35.215Z,23.72
2023-09-08T03:49:10.584Z,23.68
2023-09-08T03:51:46.281Z,23.66
2023-09-08T03:54:21.655Z,23.78
2023-09-08T03:56:55.613Z,23.78
2023-09-08T03:59:32.273Z,23.69
2023-09-08T04:02:06.346Z,23.68
2023-09-08T04:04:39.758Z,23.59
2023-09-08T04:07:12.161Z,23.51
2023-09-08T04:09:45.053Z,23.47
2023-09-08T04:12:17.799Z,23.46
2023-09-08T04:14:51.762Z,23.43
2023-09-08T04:17:25.239Z,23.43
2023-09-08T04:19:58.924Z,23.43
2023-09-08T04:22:32.335Z,23.46
2023-09-08T04:25:05.024Z,23.43
2023-09-08T04:27:39.042Z,23.40
2023-09-08T04:30:14.943Z,23.39
2023-09-08T04:32:49.878Z,23.22
2023-09-08T04:35:22.328Z,23.33
2023-09-08T04:37:55.658Z,23.24
2023-09-08T04:40:28.793Z,22.74
2023-09-08T04:43:01.937Z,23.15
2023-09-08T04:45:36.234Z,23.20
2023-09-08T04:48:09.995Z,23.02
2023-09-08T04:50:42.520Z,23.19
2023-09-08T04:53:16.508Z,23.13
2023-09-08T04:55:51.971Z,23.15
2023-09-08T04:58:25.187Z,23.15
2023-09-08T05:00:59.414Z,23.11
2023-09-08T05:03:33.268Z,23.01
2023-09-08T05:06:06.641Z,22.93
2023-09-08T05:08:39.611Z,22.85
2023-09-08T05:11:12.571Z,22.77
2023-09-08T05:13:46.671Z,22.66
2023-09-08T05:16:28.150Z,22.63
2023-09-08T05:19:01.802Z,22.60
2023-09-08T05:21:36.718Z,22.57
2023-09-08T05:24:09.871Z,22.54
2023-09-08T05:26:44.608Z,22.51
2023-09-08T05:29:17.563Z,22.52
2023-09-08T05:31:51.755Z,22.50
2023-09-08T05:34:24.387Z,22.45
2023-09-08T05:36:57.482Z,22.36
2023-09-08T05:39:29.773Z,22.33
2023-09-08T05:42:05.353Z,22.34
2023-09-08T05:44:39.373Z,22.32
2023-09-08T05:47:14.583Z,22.31
2023-09-08T05:49:50.664Z,22.28
2023-09-08T05:52:25.707Z,22.21
2023-09-08T05:55:03.537Z,22.18
2023-09-08T05:57:39.952Z,22.11
2023-09-08T06:00:16.297Z,22.07
2023-09-08T06:02:50.985Z,22.05
2023-09-08T06:05:23.273Z,22.14
2023-09-08T06:08:06.464Z,22.13
2023-09-08T06:10:39.520Z,22.12
2023-09-08T06:13:13.958Z,22.06
2023-09-08T06:15:46.019Z,22.03
2023-09-08T06:18:20.312Z,21.98
2023-09-08T06:20:53.929Z,21.93
2023-09-08T06:23:26.435Z,21.90
2023-09-08T06:26:03.553Z,21.90
2023-09-08T06:28:36.904Z,21.91
2023-09-08T06:31:10.223Z,21.93
2023-09-08T06:33:44.393Z,21.93
2023-09-08T06:36:16.518Z,21.93
2023-09-08T06:38:49.266Z,21.91
2023-09-08T06:41:21.622Z,21.89
2023-09-08T06:43:53.852Z,21.87
2023-09-08T06:46:26.188Z,21.86
2023-09-08T06:49:00.806Z,21.82
2023-09-08T06:51:34.888Z,21.82
2023-09-08T06:54:10.062Z,21.82
2023-09-08T06:56:42.843Z,21.84
2023-09-08T06:59:15.495Z,21.84
2023-09-08T07:01:49.009Z,21.81
2023-09-08T07:04:25.100Z,21.77
2023-09-08T07:06:59.140Z,21.76
2023-09-08T07:09:31.525Z,21.75
2023-09-08T07:12:04.748Z,21.70
2023-09-08T07:14:37.372Z,21.70
2023-09-08T07:17:11.452Z,21.66
2023-09-08T07:19:45.978Z,21.64
2023-09-08T07:22:19.536Z,21.60
2023-09-08T07:24:52.054Z,21.56
2023-09-08T07:27:23.614Z,21.50
2023-09-08T07:29:57.233Z,21.47
2023-09-08T07:32:30.322Z,21.39
2023-09-08T07:35:05.082Z,21.36
2023-09-08T07:37:38.565Z,21.40
2023-09-08T07:40:12.920Z,21.36
2023-09-08T07:42:46.180Z,21.32
2023-09-08T07:45:20.148Z,21.24
2023-09-08T07:47:52.796Z,21.19
2023-09-08T07:50:30.026Z,21.15
2023-09-08T07:53:03.842Z,21.11
2023-09-08T07:55:37.056Z,21.07
2023-09-08T07:58:09.035Z,21.03
2023-09-08T08:00:41.105Z,20.98
2023-09-08T08:03:12.750Z,20.92
2023-09-08T08:05:46.456Z,20.84
2023-09-08T08:08:19.360Z,20.76
2023-09-08T08:10:50.993Z,20.70
2023-09-08T08:13:25.307Z,20.65
2023-09-08T08:15:57.476Z,20.16
2023-09-08T08:18:31.042Z,20.52
2023-09-08T08:21:05.920Z,20.44
2023-09-08T08:23:41.204Z,20.36
2023-09-08T08:26:12.732Z,20.30
2023-09-08T08:28:46.125Z,20.22
2023-09-08T08:31:19.663Z,20.13
2023-09-08T08:33:52.333Z,20.04
2023-09-08T08:36:26.464Z,19.98
2023-09-08T08:38:59.010Z,19.87
2023-09-08T08:41:31.697Z,19.77
2023-09-08T08:44:05.454Z,19.67
2023-09-08T08:46:38.516Z,19.54
2023-09-08T08:49:14.426Z,19.55
2023-09-08T08:51:49.829Z,19.43
2023-09-08T08:54:22.672Z,19.38
2023-09-08T08:56:55.574Z,19.28
2023-09-08T08:59:29.467Z,19.20
2023-09-08T09:02:01.351Z,19.10
2023-09-08T09:04:37.214Z,19.08
2023-09-08T09:07:12.241Z,19.01
2023-09-08T09:09:46.258Z,19.03
2023-09-08T09:12:18.674Z,18.95
2023-09-08T09:15:01.690Z,18.73
2023-09-08T09:17:32.300Z,18.92
2023-09-08T09:20:19.597Z,18.88
2023-09-08T09:23:00.593Z,18.82
2023-09-08T09:25:35.790Z,18.68
2023-09-08T09:28:07.503Z,18.73
2023-09-08T09:30:53.959Z,18.70
2023-09-08T09:36:42.151Z,18.65
2023-09-08T09:39:16.875Z,18.65
2023-09-08T09:41:47.922Z,18.62
2023-09-08T09:44:19.245Z,18.38
2023-09-08T09:47:14.570Z,18.52
2023-09-08T09:49:49.286Z,18.52
2023-09-08T09:52:25.734Z,18.36
2023-09-08T09:54:58.826Z,18.41
2023-09-08T09:57:32.511Z,18.14
2023-09-08T10:00:07.608Z,18.31
2023-09-08T10:02:41.277Z,18.14
2023-09-08T10:05:16.131Z,18.30
2023-09-08T10:10:45.674Z,18.30
2023-09-08T10:13:51.665Z,18.18
2023-09-08T10:16:33.313Z,18.25
2023-09-08T10:19:15.754Z,18.20
2023-09-08T10:25:35.959Z,18.15
2023-09-08T10:28:10.184Z,18.17
2023-09-08T10:30:42.161Z,18.20
2023-09-08T10:33:15.293Z,18.15
2023-09-08T10:35:48.034Z,18.09
2023-09-08T10:38:29.904Z,18.08
2023-09-08T10:41:34.460Z,18.04
2023-09-08T10:44:13.335Z,17.98
2023-09-08T10:46:46.990Z,17.95
2023-09-08T10:52:14.111Z,17.79
2023-09-08T10:54:50.008Z,17.54
2023-09-08T10:57:22.969Z,17.75
2023-09-08T10:59:59.464Z,17.77
2023-09-08T11:02:41.518Z,17.68
2023-09-08T11:05:15.460Z,17.58
2023-09-08T11:07:48.326Z,17.52
2023-09-08T11:10:19.943Z,17.45
2023-09-08T11:12:53.657Z,17.40
2023-09-08T11:15:27.162Z,17.38
2023-09-08T11:17:59.145Z,17.37
2023-09-08T11:20:33.384Z,17.33
2023-09-08T11:23:05.943Z,17.28
2023-09-08T11:25:38.323Z,17.33
2023-09-08T11:28:11.096Z,17.04
2023-09-08T11:30:44.438Z,17.17
2023-09-08T11:33:19.976Z,16.80
2023-09-08T11:35:51.737Z,17.25
2023-09-08T11:38:23.462Z,17.24
2023-09-08T11:40:55.157Z,17.27
2023-09-08T11:43:26.752Z,17.29
2023-09-08T11:46:01.517Z,17.31
2023-09-08T11:48:33.207Z,17.12
2023-09-08T11:51:04.961Z,17.35
2023-09-08T11:53:36.698Z,17.38
2023-09-08T11:56:08.878Z,17.43
2023-09-08T11:58:40.836Z,17.44
2023-09-08T12:01:14.616Z,17.47
2023-09-08T12:03:57.263Z,17.35
2023-09-08T12:06:31.246Z,17.50
2023-09-08T12:09:06.340Z,17.46
2023-09-08T12:11:43.567Z,17.46
2023-09-08T12:14:17.376Z,17.20
2023-09-08T12:16:50.747Z,17.51
2023-09-08T12:19:35.207Z,17.48
2023-09-08T12:22:07.843Z,17.56
2023-09-08T12:24:52.666Z,17.61
2023-09-08T12:27:24.686Z,17.59
2023-09-08T12:30:03.928Z,17.61
2023-09-08T12:32:36.460Z,17.63
2023-09-08T12:35:09.099Z,17.69
2023-09-08T12:37:42.883Z,17.73
2023-09-08T12:40:15.557Z,17.70
2023-09-08T12:42:48.800Z,17.64
2023-09-08T12:45:24.957Z,17.64
2023-09-08T12:48:00.321Z,17.61
2023-09-08T12:50:42.582Z,17.24
2023-09-08T12:53:20.460Z,17.52
2023-09-08T12:55:54.338Z,17.36
2023-09-08T12:58:29.513Z,17.50
2023-09-08T13:01:07.091Z,17.47
2023-09-08T13:11:56.410Z,16.86
2023-09-08T13:14:34.146Z,16.96
2023-09-08T13:17:39.409Z,16.92
2023-09-08T13:20:44.666Z,16.86
2023-09-08T13:23:24.938Z,16.83
2023-09-08T13:25:58.685Z,16.49
2023-09-08T13:28:29.287Z,16.82
2023-09-08T13:30:59.945Z,16.59
2023-09-08T13:33:31.445Z,16.83
2023-09-08T13:36:03.743Z,16.83
2023-09-08T13:38:38.631Z,16.96
2023-09-08T13:41:09.651Z,17.09
2023-09-08T13:43:47.392Z,16.97
2023-09-08T13:46:30.126Z,17.27
2023-09-08T13:49:03.578Z,17.34
2023-09-08T13:51:38.399Z,17.38
2023-09-08T13:54:30.062Z,17.41
2023-09-08T13:57:08.755Z,17.27
2023-09-08T13:59:42.534Z,17.34
2023-09-08T14:02:42.555Z,17.29
2023-09-08T14:05:21.200Z,17.18
2023-09-08T14:08:17.446Z,17.04
2023-09-08T14:10:52.770Z,16.64
2023-09-08T14:13:28.963Z,16.80
2023-09-08T14:16:00.823Z,16.62
2023-09-08T14:18:33.607Z,16.47
2023-09-08T14:21:07.103Z,16.45
2023-09-08T14:23:40.200Z,16.41
2023-09-08T14:26:33.339Z,16.36
2023-09-08T14:29:09.409Z,16.34
2023-09-08T14:31:40.071Z,16.35
2023-09-08T14:34:15.220Z,16.58
2023-09-08T14:36:50.087Z,16.61
2023-09-08T14:39:25.105Z,15.95
2023-09-08T14:41:56.962Z,16.31
2023-09-08T14:44:29.865Z,16.85
2023-09-08T14:47:00.480Z,17.13
2023-09-08T14:49:31.212Z,17.36
2023-09-08T14:52:01.852Z,17.56
2023-09-08T14:54:39.503Z,17.72
2023-09-08T14:57:10.155Z,17.82
2023-09-08T14:59:43.564Z,17.93
2023-09-08T15:02:23.066Z,18.01
2023-09-08T15:04:58.604Z,18.10
2023-09-08T15:07:29.229Z,18.16
2023-09-08T15:10:01.505Z,18.20
2023-09-08T15:12:32.124Z,18.22
2023-09-08T15:15:02.885Z,18.19
2023-09-08T15:17:36.031Z,18.29
2023-09-08T15:20:07.090Z,18.24
2023-09-08T15:22:38.751Z,18.36
2023-09-08T15:25:11.957Z,18.39
2023-09-08T15:27:45.861Z,18.15
2023-09-08T15:30:18.275Z,18.31
2023-09-08T15:32:49.700Z,18.41
2023-09-08T15:35:20.605Z,18.47
2023-09-08T15:37:52.189Z,18.50
2023-09-08T15:40:24.392Z,18.54
2023-09-08T15:42:55.967Z,18.56
2023-09-08T15:45:29.390Z,18.53
2023-09-08T15:48:03.103Z,18.56
2023-09-08T15:50:33.702Z,18.54
2023-09-08T15:53:04.219Z,18.44
2023-09-08T15:55:36.351Z,18.47
2023-09-08T15:58:08.351Z,18.47
2023-09-08T16:00:39.003Z,18.48
2023-09-08T16:03:09.891Z,18.50
2023-09-08T16:05:40.488Z,18.50
2023-09-08T16:08:11.300Z,18.40
2023-09-08T16:10:44.564Z,18.27
2023-09-08T16:13:15.287Z,18.13
2023-09-08T16:15:51.439Z,17.78
2023-09-08T16:18:22.020Z,17.87
2023-09-08T16:20:54.853Z,17.84
2023-09-08T16:23:26.611Z,17.81
2023-09-08T16:26:02.339Z,17.77
2023-09-08T16:28:35.921Z,17.77
2023-09-08T16:31:12.580Z,17.74
2023-09-08T16:33:43.271Z,17.66
2023-09-08T16:36:13.913Z,17.77
2023-09-08T16:38:44.936Z,17.75
2023-09-08T16:41:18.130Z,17.49
2023-09-08T16:43:48.673Z,17.44
2023-09-08T16:46:19.214Z,17.61
2023-09-08T16:48:52.785Z,17.63
2023-09-08T16:51:24.710Z,17.61
2023-09-08T16:53:55.281Z,17.62
2023-09-08T16:56:27.421Z,17.62
2023-09-08T16:58:58.073Z,17.59
2023-09-08T17:01:29.581Z,17.60
2023-09-08T17:04:00.208Z,17.62
2023-09-08T17:06:33.831Z,17.64
2023-09-08T17:09:05.341Z,17.65
2023-09-08T17:11:40.290Z,17.54
2023-09-08T17:14:12.880Z,17.63
2023-09-08T17:16:43.544Z,17.59
2023-09-08T17:19:14.646Z,17.60
2023-09-08T17:21:46.937Z,17.57
2023-09-08T17:24:17.708Z,17.55
2023-09-08T17:26:52.330Z,17.50
2023-09-08T17:29:23.582Z,17.22
2023-09-08T17:31:55.029Z,17.32
2023-09-08T17:34:25.898Z,17.19
2023-09-08T17:37:03.665Z,17.16
2023-09-08T17:39:45.574Z,16.92
2023-09-08T17:42:26.041Z,17.16
2023-09-08T17:44:56.574Z,17.15
2023-09-08T17:47:27.235Z,17.10
2023-09-08T17:49:58.042Z,17.09
2023-09-08T17:52:28.798Z,17.04
2023-09-08T17:55:03.167Z,17.04
2023-09-08T17:57:35.435Z,17.03
2023-09-08T18:00:07.324Z,17.02
2023-09-08T18:02:41.318Z,16.98
2023-09-08T18:05:14.244Z,16.93
2023-09-08T18:07:46.403Z,16.75
2023-09-08T18:10:17.181Z,16.84
2023-09-08T18:12:50.978Z,16.71
2023-09-08T18:15:24.345Z,16.81
2023-09-08T18:17:55.467Z,16.80
2023-09-08T18:20:27.658Z,16.73
2023-09-08T18:22:58.235Z,16.74
2023-09-08T18:25:29.077Z,16.67
2023-09-08T18:28:07.429Z,16.63
2023-09-08T18:30:38.108Z,16.60
2023-09-08T18:33:10.982Z,16.52
2023-09-08T18:35:47.705Z,16.62
2023-09-08T18:38:20.533Z,16.57
2023-09-08T18:40:51.058Z,16.64
2023-09-08T18:43:23.911Z,16.60
2023-09-08T18:45:57.206Z,16.65
2023-09-08T18:48:28.901Z,16.68
2023-09-08T18:51:01.922Z,16.70
2023-09-08T18:53:32.511Z,16.68
2023-09-08T18:56:05.517Z,16.66
2023-09-08T18:58:39.161Z,16.68
2023-09-08T19:01:10.116Z,16.42
2023-09-08T19:03:42.531Z,16.68
2023-09-08T19:06:13.307Z,16.44
2023-09-08T19:08:44.027Z,16.63
2023-09-08T19:11:14.548Z,16.56
2023-09-08T19:13:47.359Z,16.55
2023-09-08T19:16:19.055Z,16.49
2023-09-08T19:18:49.737Z,16.51
2023-09-08T19:21:20.148Z,16.48
2023-09-08T19:23:51.725Z,16.39
2023-09-08T19:26:22.295Z,16.38
2023-09-08T19:28:54.535Z,16.38
2023-09-08T19:31:25.431Z,16.42
2023-09-08T19:33:58.111Z,16.45
2023-09-08T19:36:28.724Z,16.47
2023-09-08T19:38:59.575Z,16.49
2023-09-08T19:41:30.022Z,16.49
2023-09-08T19:44:02.065Z,16.48
2023-09-08T19:46:32.488Z,16.47
2023-09-08T19:49:03.128Z,16.29
2023-09-08T19:51:33.632Z,16.16
2023-09-08T19:54:04.850Z,16.41
2023-09-08T19:56:35.297Z,16.43
2023-09-08T19:59:07.460Z,16.42
2023-09-08T20:01:39.675Z,16.37
2023-09-08T20:04:13.275Z,16.42
2023-09-08T20:06:47.176Z,16.44
2023-09-08T20:09:17.662Z,16.17
2023-09-08T20:11:48.217Z,16.46
2023-09-08T20:14:20.291Z,16.47
2023-09-08T20:16:50.820Z,16.47
2023-09-08T20:19:21.360Z,16.47
2023-09-08T20:21:51.823Z,16.51
2023-09-08T20:24:22.279Z,16.53
2023-09-08T20:26:53.507Z,16.54
2023-09-08T20:29:28.025Z,16.63
2023-09-08T20:31:59.368Z,16.69
2023-09-08T20:34:29.901Z,16.72
2023-09-08T20:37:00.376Z,16.78
2023-09-08T20:39:31.002Z,16.79
2023-09-08T20:42:01.649Z,16.83
2023-09-08T20:44:33.700Z,16.88
2023-09-08T20:47:04.492Z,16.89
2023-09-08T20:49:35.833Z,16.94
2023-09-08T20:52:06.870Z,16.93
2023-09-08T20:54:37.369Z,16.96
2023-09-08T20:57:08.324Z,16.96
2023-09-08T20:59:41.279Z,16.98
2023-09-08T21:02:11.689Z,17.10
2023-09-08T21:04:42.694Z,17.18
2023-09-08T21:07:13.151Z,17.18
2023-09-08T21:09:43.692Z,17.25
2023-09-08T21:12:14.145Z,17.33
2023-09-08T21:14:46.245Z,17.41
2023-09-08T21:17:16.705Z,17.50
2023-09-08T21:19:47.240Z,17.58
2023-09-08T21:22:17.793Z,17.66
2023-09-08T21:24:48.310Z,17.75
2023-09-08T21:27:18.850Z,17.86
2023-09-08T21:29:55.941Z,18.03
2023-09-08T21:32:26.963Z,18.20
2023-09-08T21:34:57.485Z,18.36
2023-09-08T21:37:29.180Z,18.56
2023-09-08T21:40:00.505Z,18.71
2023-09-08T21:42:31.276Z,18.96
2023-09-08T21:45:03.433Z,19.15
2023-09-08T21:47:34.808Z,19.21
2023-09-08T21:50:05.422Z,19.44
2023-09-08T21:52:39.133Z,19.58
2023-09-08T21:55:11.478Z,19.67
2023-09-08T21:57:42.007Z,19.80
2023-09-08T22:00:19.082Z,19.87
2023-09-08T22:02:49.793Z,20.07
2023-09-08T22:05:20.736Z,20.20
2023-09-08T22:07:51.195Z,20.36
2023-09-08T22:10:23.648Z,20.52
2023-09-08T22:12:54.329Z,20.68
2023-09-08T22:15:26.646Z,20.78
2023-09-08T22:17:57.158Z,20.87
2023-09-08T22:20:28.334Z,20.98
2023-09-08T22:22:59.118Z,20.86
2023-09-08T22:25:29.708Z,21.18
2023-09-08T22:28:00.268Z,21.30
2023-09-08T22:30:32.594Z,21.50
2023-09-08T22:33:03.150Z,21.71
2023-09-08T22:35:33.797Z,21.78
2023-09-08T22:38:04.848Z,21.78
2023-09-08T22:40:35.778Z,21.81
2023-09-08T22:43:06.476Z,21.84
2023-09-08T22:45:38.849Z,21.81
2023-09-08T22:48:11.440Z,21.73
2023-09-08T22:50:42.262Z,21.60
2023-09-08T22:53:14.192Z,21.59
2023-09-08T22:55:44.689Z,21.65
2023-09-08T22:58:16.592Z,21.74
2023-09-08T23:00:49.201Z,21.92
2023-09-08T23:03:19.836Z,22.13
2023-09-08T23:05:50.612Z,22.40
2023-09-08T23:08:24.014Z,22.63
2023-09-08T23:10:55.946Z,22.72
2023-09-08T23:13:26.900Z,22.71
2023-09-08T23:15:58.985Z,22.78
2023-09-08T23:18:29.655Z,22.72
2023-09-08T23:21:00.422Z,22.70
2023-09-08T23:23:30.842Z,22.71
2023-09-08T23:26:01.607Z,22.67
2023-09-08T23:28:32.240Z,22.70
2023-09-08T23:31:05.715Z,22.70
2023-09-08T23:33:36.562Z,22.64
2023-09-08T23:36:07.823Z,22.68
2023-09-08T23:38:38.238Z,22.75
2023-09-08T23:41:08.681Z,22.78
2023-09-08T23:43:39.422Z,22.81
2023-09-08T23:46:11.960Z,22.82
2023-09-08T23:48:47.816Z,22.70
2023-09-08T23:51:21.412Z,22.88
2023-09-08T23:53:53.344Z,23.04
2023-09-08T23:56:23.971Z,23.10
2023-09-08T23:58:54.437Z,23.00
